Time;durP1;ratioP1;P1;durP2;ratioP2;P2;SDS_P1;SDS_P2;PMS_P1;PMS_P2;Temp;Humidity;BMP_temperature;BMP_pressure;BME280_temperature;BME280_humidity;BME280_pressure;Samples;Min_cycle;Max_cycle;Signal;HPM_P1;HPM_P2
2022/06/14 00:02:42;;;;;;;4.18;1.83;;;;;;;14.40;59.76;100415.59;12178530;19;20007;-80
2022/06/14 00:06:44;;;;;;;6.30;2.15;;;;;;;14.34;60.14;100417.47;12209462;19;20003;-80
2022/06/14 00:10:47;;;;;;;5.07;2.00;;;;;;;14.29;60.33;100404.38;12207598;19;20468;-80
2022/06/14 00:14:49;;;;;;;3.85;2.05;;;;;;;14.24;60.66;100411.78;12169274;19;20010;-81
2022/06/14 00:18:50;;;;;;;3.00;1.65;;;;;;;14.18;61.17;100407.28;12211944;19;20070;-81
2022/06/14 00:22:52;;;;;;;6.15;2.35;;;;;;;14.11;61.98;100413.88;12176424;19;20010;-79
2022/06/14 00:26:54;;;;;;;3.38;1.77;;;;;;;14.08;61.82;100403.28;12239029;19;20010;-79
2022/06/14 00:31:17;;;;;;;4.20;1.90;;;;;;;14.05;62.45;100406.59;12221260;19;20035;-81
2022/06/14 00:35:19;;;;;;;2.85;1.60;;;;;;;14.03;62.36;100406.00;12179469;19;20017;-81
2022/06/14 00:39:22;;;;;;;3.55;1.92;;;;;;;14.00;62.34;100402.91;12204124;19;20021;-81
2022/06/14 00:43:25;;;;;;;5.38;1.73;;;;;;;13.90;62.70;100398.09;12202954;19;20548;-80
2022/06/14 00:47:27;;;;;;;7.03;2.88;;;;;;;13.86;62.74;100395.00;12185974;19;20014;-80
2022/06/14 00:51:37;;;;;;;2.57;1.53;;;;;;;13.83;63.00;100401.06;12213607;19;20039;-81
2022/06/14 00:55:59;;;;;;;3.05;1.75;;;;;;;13.78;63.34;100392.66;12197714;19;20074;-81
2022/06/14 01:00:08;;;;;;;2.83;1.83;;;;;;;13.72;63.24;100395.63;12180657;19;20070;-80
2022/06/14 01:04:21;;;;;;;7.13;2.05;;;;;;;13.67;63.32;100394.44;12199653;19;20014;-81
2022/06/14 01:08:23;;;;;;;;;;;;;;;13.65;64.16;100393.91;12189088;19;20484;-80
2022/06/14 01:12:29;;;;;;;7.05;1.92;;;;;;;13.56;63.58;100395.41;12191306;19;19911;-81
2022/06/14 01:16:32;;;;;;;2.83;1.75;;;;;;;13.48;64.46;100403.34;12200211;19;20350;-81
2022/06/14 01:20:35;;;;;;;2.30;1.50;;;;;;;13.40;65.10;100402.66;12178128;19;20034;-80
2022/06/14 01:24:40;;;;;;;4.53;2.92;;;;;;;13.30;65.15;100396.16;12204084;19;20074;-81
2022/06/14 01:28:46;;;;;;;6.78;2.03;;;;;;;13.19;65.26;100395.94;12203436;19;20014;-80
2022/06/14 01:32:56;;;;;;;3.05;1.60;;;;;;;13.09;65.81;100389.44;12173209;19;20460;-81
2022/06/14 01:36:59;;;;;;;4.60;1.63;;;;;;;12.97;66.06;100383.97;12215262;19;20042;-80
2022/06/14 01:41:47;;;;;;;6.18;2.00;;;;;;;12.81;67.24;100376.50;12171339;19;19998;-80
2022/06/14 01:46:20;;;;;;;6.97;2.53;;;;;;;12.71;68.39;100386.31;12202806;19;20040;-81
2022/06/14 01:55:25;;;;;;;2.85;1.70;;;;;;;12.65;69.85;100375.41;12208745;19;20412;-80
2022/06/14 01:59:40;;;;;;;4.78;1.92;;;;;;;12.66;69.08;100386.22;12190960;19;20003;-81
2022/06/14 02:08:20;;;;;;;5.57;2.22;;;;;;;12.53;69.62;100376.31;12189616;19;20018;-80
2022/06/14 02:12:36;;;;;;;3.00;1.98;;;;;;;12.47;70.79;100390.28;12208745;19;20014;-81
2022/06/14 02:17:11;;;;;;;9.98;2.30;;;;;;;12.38;70.92;100383.50;12201631;19;19999;-78
2022/06/14 02:21:21;;;;;;;4.97;1.92;;;;;;;12.33;71.11;100378.69;12188990;19;20010;-80
2022/06/14 02:25:29;;;;;;;5.55;2.10;;;;;;;12.28;71.29;100384.97;12206635;19;20077;-80
2022/06/14 02:29:35;;;;;;;4.53;2.50;;;;;;;12.24;72.01;100381.03;12185850;19;20018;-82
2022/06/14 02:33:56;;;;;;;4.75;2.20;;;;;;;12.22;72.66;100383.19;12205065;19;20037;-80
2022/06/14 02:38:15;;;;;;;5.50;2.25;;;;;;;12.21;72.47;100377.91;12190591;19;20010;-81
2022/06/14 02:42:19;;;;;;;5.50;1.92;;;;;;;12.21;71.89;100367.69;12212502;19;20033;-81
2022/06/14 02:46:30;;;;;;;2.80;1.85;;;;;;;12.23;72.00;100375.75;12202235;19;20700;-80
2022/06/14 02:50:42;;;;;;;5.50;1.80;;;;;;;12.24;72.20;100374.66;12193365;19;20067;-82
2022/06/14 02:54:55;;;;;;;4.22;2.00;;;;;;;12.23;72.62;100384.88;12213170;19;20082;-80
2022/06/14 02:59:09;;;;;;;3.30;1.77;;;;;;;12.18;72.66;100373.72;12196191;19;20018;-80
2022/06/14 03:03:16;;;;;;;5.85;2.10;;;;;;;12.13;72.44;100383.81;12201971;19;20073;-80
2022/06/14 03:07:25;;;;;;;4.18;3.10;;;;;;;12.07;73.03;100380.13;12204078;19;20647;-81
2022/06/14 03:11:48;;;;;;;4.18;1.95;;;;;;;12.05;73.30;100377.63;12185884;19;20013;-80
2022/06/14 03:15:55;;;;;;;4.13;2.03;;;;;;;12.03;73.42;100388.06;12195043;19;20018;-81
2022/06/14 03:20:15;;;;;;;4.13;2.22;;;;;;;12.02;73.78;100380.03;12185257;19;20033;-80
2022/06/14 03:24:39;;;;;;;4.07;2.35;;;;;;;11.99;74.15;100375.00;12206302;19;20476;-80
2022/06/14 03:28:55;;;;;;;;;;;;;;;11.96;74.71;100369.97;12202400;19;20002;-79
2022/06/14 03:33:28;;;;;;;7.82;2.20;;;;;;;11.93;74.38;100379.59;12184152;19;19915;-80
2022/06/14 03:37:31;;;;;;;4.97;2.03;;;;;;;11.90;74.36;100385.59;12207835;19;20074;-78
2022/06/14 03:41:33;;;;;;;;;;;;;;;11.91;75.62;100378.97;12179152;19;20066;-80
2022/06/14 03:45:43;;;;;;;6.85;2.15;;;;;;;11.88;75.35;100379.47;12200110;19;19922;-79
2022/06/14 03:49:50;;;;;;;2.78;2.10;;;;;;;11.85;75.83;100383.56;12240036;19;20006;-77
2022/06/14 03:54:25;;;;;;;4.68;2.22;;;;;;;11.88;76.41;100381.41;12210786;19;20794;-79
2022/06/14 03:58:41;;;;;;;8.32;2.17;;;;;;;11.85;75.77;100391.84;12207390;19;21895;-79
2022/06/14 04:03:10;;;;;;;4.97;2.25;;;;;;;11.84;76.29;100390.16;12186413;19;20006;-82
2022/06/14 04:07:38;;;;;;;5.15;1.92;;;;;;;11.82;77.15;100388.72;12205439;19;20014;-80
2022/06/14 04:11:42;;;;;;;3.72;2.08;;;;;;;11.82;77.21;100391.47;12182705;19;20019;-80
2022/06/14 04:15:53;;;;;;;7.63;2.40;;;;;;;11.86;77.06;100382.47;12199969;19;20677;-79
2022/06/14 04:20:10;;;;;;;5.68;2.50;;;;;;;11.91;77.07;100383.69;12178959;19;20030;-80
2022/06/14 04:24:33;;;;;;;7.18;2.40;;;;;;;11.92;77.65;100379.81;12204283;19;20113;-79
2022/06/14 04:28:54;;;;;;;4.15;2.30;;;;;;;11.95;78.03;100384.84;12203278;19;20070;-79
2022/06/14 04:33:16;;;;;;;4.40;2.20;;;;;;;11.93;78.19;100400.81;12185248;19;20018;-80
2022/06/14 04:37:24;;;;;;;5.82;2.63;;;;;;;11.93;78.54;100398.91;12202924;19;20015;-81
2022/06/14 04:41:31;;;;;;;8.70;2.50;;;;;;;12.01;79.03;100392.16;12183168;19;20010;-81
2022/06/14 04:45:46;;;;;;;6.72;2.55;;;;;;;12.09;80.52;100394.53;12201162;19;20070;-79
2022/06/14 04:50:07;;;;;;;8.10;2.53;;;;;;;12.15;80.56;100388.03;12207209;19;20006;-79
2022/06/14 04:54:17;;;;;;;8.00;2.80;;;;;;;12.24;81.17;100389.31;12192762;19;20014;-82
2022/06/14 04:58:31;;;;;;;7.07;2.72;;;;;;;12.36;81.05;100389.25;12211031;19;20011;-79
2022/06/14 05:02:38;;;;;;;4.50;2.20;;;;;;;12.44;81.27;100388.88;12187855;19;20007;-82
2022/06/14 05:06:56;;;;;;;4.45;2.40;;;;;;;12.54;81.51;100382.69;12205806;19;20014;-81
2022/06/14 05:11:02;;;;;;;6.20;2.63;;;;;;;12.64;81.09;100382.88;12187019;19;20720;-81
2022/06/14 05:15:19;;;;;;;6.68;2.55;;;;;;;12.75;81.46;100379.19;12203235;19;20014;-82
2022/06/14 05:19:34;;;;;;;4.63;2.50;;;;;;;12.87;81.58;100384.63;12207716;19;20070;-81
2022/06/14 05:23:52;;;;;;;5.05;2.90;;;;;;;12.98;81.60;100383.72;12184877;19;20011;-80
2022/06/14 05:27:59;;;;;;;8.70;2.65;;;;;;;13.11;81.68;100381.69;12200532;19;20007;-80
2022/06/14 05:32:30;;;;;;;6.00;2.88;;;;;;;13.23;82.78;100380.50;12174431;19;20014;-81
2022/06/14 05:36:42;;;;;;;4.03;2.50;;;;;;;13.39;81.57;100378.00;12205809;19;20128;-80
2022/06/14 05:41:01;;;;;;;7.13;2.80;;;;;;;13.53;82.04;100382.06;12198384;19;20075;-81
2022/06/14 05:45:03;;;;;;;8.25;2.75;;;;;;;13.65;81.16;100385.59;12182915;19;20010;-82
2022/06/14 05:49:08;;;;;;;6.37;2.77;;;;;;;13.80;81.19;100384.09;12205894;19;20003;-80
2022/06/14 05:53:26;;;;;;;6.35;2.50;;;;;;;13.94;81.36;100379.84;12185330;19;20011;-80
2022/06/14 05:57:43;;;;;;;6.35;2.47;;;;;;;14.10;80.64;100378.94;12202322;19;20353;-80
2022/06/14 06:01:53;;;;;;;5.60;2.58;;;;;;;14.35;78.17;100375.59;12196626;19;20508;-80
2022/06/14 06:06:12;;;;;;;7.32;2.53;;;;;;;14.64;77.35;100380.09;12182185;19;20034;-81
2022/06/14 06:10:20;;;;;;;3.10;1.98;;;;;;;14.87;76.23;100382.50;12201890;19;20423;-80
2022/06/14 06:14:30;;;;;;;5.95;2.45;;;;;;;15.13;74.85;100379.94;12170441;19;20014;-81
2022/06/14 06:18:37;;;;;;;5.10;2.45;;;;;;;15.39;73.56;100380.97;12196872;19;20014;-81
2022/06/14 06:22:44;;;;;;;6.93;2.50;;;;;;;15.70;71.11;100377.28;12213084;19;20130;-81
2022/06/14 06:26:53;;;;;;;7.22;2.55;;;;;;;16.01;69.99;100385.75;12194436;19;20011;-80
2022/06/14 06:31:14;;;;;;;5.90;2.60;;;;;;;16.28;68.45;100385.56;12214111;19;20068;-80
2022/06/14 06:35:16;;;;;;;6.25;2.25;;;;;;;16.54;67.70;100380.06;12189155;19;20016;-81
2022/06/14 06:39:26;;;;;;;7.15;1.88;;;;;;;16.81;65.96;100382.63;12214198;19;20013;-81
2022/06/14 06:43:28;;;;;;;7.90;2.40;;;;;;;17.07;65.04;100381.53;12215141;19;20345;-80
2022/06/14 06:47:51;;;;;;;5.93;2.50;;;;;;;17.34;63.80;100391.53;12190432;19;20007;-80
2022/06/14 06:51:58;;;;;;;7.83;2.00;;;;;;;17.60;62.01;100383.09;12204792;19;20056;-80
2022/06/14 06:56:13;;;;;;;5.53;2.25;;;;;;;17.84;61.69;100383.34;12189135;19;20010;-80
2022/06/14 07:00:18;;;;;;;5.88;2.25;;;;;;;18.09;60.60;100388.81;12206173;19;20014;-80
2022/06/14 07:09:07;;;;;;;7.95;2.55;;;;;;;18.52;57.79;100382.72;12191259;19;20026;-81
2022/06/14 07:13:32;;;;;;;5.65;2.17;;;;;;;18.79;57.18;100373.91;12223203;19;20985;-80
2022/06/14 07:17:50;;;;;;;3.92;2.17;;;;;;;19.03;56.08;100377.63;12182467;19;20162;-80
2022/06/14 07:22:02;;;;;;;4.65;2.20;;;;;;;19.30;55.37;100374.31;12203849;19;20019;-81
2022/06/14 07:26:33;;;;;;;6.65;2.90;;;;;;;19.62;54.42;100380.41;12188861;19;20038;-80
2022/06/14 07:30:45;;;;;;;;;;;;;;;19.86;54.04;100372.06;12204359;19;21105;-81
2022/06/14 07:34:48;;;;;;;5.55;2.45;;;;;;;20.12;52.85;100375.38;12204061;19;19918;-80
2022/06/14 07:39:00;;;;;;;4.78;2.05;;;;;;;20.39;52.39;100369.13;12181786;19;20011;-81
2022/06/14 07:43:17;;;;;;;5.60;2.65;;;;;;;20.70;51.96;100375.97;12204331;19;20011;-80
2022/06/14 07:47:38;;;;;;;5.88;2.17;;;;;;;20.94;49.68;100375.03;12188948;19;20022;-80
2022/06/14 07:51:47;;;;;;;7.22;2.20;;;;;;;21.06;49.71;100369.78;12208765;19;20458;-80
2022/06/14 07:55:54;;;;;;;6.00;2.30;;;;;;;21.27;49.74;100367.44;12208963;19;20043;-81
2022/06/14 08:04:44;;;;;;;5.53;2.10;;;;;;;21.69;44.65;100365.56;12189744;19;20436;-80
2022/06/14 08:08:52;;;;;;;6.38;1.83;;;;;;;21.84;44.39;100356.84;12193231;19;20438;-81
2022/06/14 08:13:01;;;;;;;4.68;1.95;;;;;;;21.65;43.86;100360.88;12208873;19;20014;-80
2022/06/14 08:17:08;;;;;;;5.40;1.85;;;;;;;21.86;44.63;100353.69;12189818;19;20010;-80
2022/06/14 08:21:32;;;;;;;4.60;1.77;;;;;;;21.85;40.36;100343.63;12210057;19;20344;-80
2022/06/14 08:25:41;;;;;;;5.03;1.85;;;;;;;22.22;42.51;100353.81;12220125;19;20707;-80
2022/06/14 08:29:49;;;;;;;6.13;1.88;;;;;;;22.55;42.40;100349.97;12196741;19;20020;-79
2022/06/14 08:34:05;;;;;;;3.97;1.80;;;;;;;22.71;40.69;100348.47;12213410;19;20003;-80
2022/06/14 08:38:11;;;;;;;4.18;1.58;;;;;;;22.87;39.84;100346.09;12189618;19;20013;-80
2022/06/14 08:42:28;;;;;;;6.47;2.13;;;;;;;22.87;39.18;100340.50;12211456;19;20110;-80
2022/06/14 08:47:09;;;;;;;10.10;2.53;;;;;;;23.18;38.63;100335.78;12211932;19;20038;-80
2022/06/14 08:51:14;;;;;;;5.47;1.40;;;;;;;23.46;39.04;100337.56;12192783;19;20009;-80
2022/06/14 08:55:38;;;;;;;5.82;1.83;;;;;;;23.76;38.70;100339.53;12217520;19;20003;-81
2022/06/14 08:59:50;;;;;;;4.38;1.90;;;;;;;23.78;38.70;100326.00;12192086;19;20002;-80
2022/06/14 09:04:04;;;;;;;7.78;2.10;;;;;;;23.76;38.48;100333.91;12207973;19;20010;-80
2022/06/14 09:08:40;;;;;;;6.55;1.80;;;;;;;23.80;37.64;100336.94;12185868;19;20014;-79
2022/06/14 09:13:08;;;;;;;3.63;1.85;;;;;;;23.64;37.97;100331.69;12202625;19;20597;-79
2022/06/14 09:17:28;;;;;;;4.90;2.42;;;;;;;23.80;37.81;100322.88;12179042;19;20006;-79
2022/06/14 09:22:23;;;;;;;2.22;1.42;;;;;;;24.06;36.93;100320.09;12210383;19;20006;-79
2022/06/14 09:26:37;;;;;;;6.07;2.03;;;;;;;24.01;36.49;100317.47;12199322;19;20088;-79
2022/06/14 09:30:50;;;;;;;7.43;1.60;;;;;;;24.33;37.26;100324.59;12248960;19;20046;-78
2022/06/14 09:35:26;;;;;;;3.55;1.80;;;;;;;24.66;36.03;100316.56;12258632;19;20010;-78
2022/06/14 09:39:37;;;;;;;3.90;1.35;;;;;;;24.81;35.81;100309.56;12152175;19;2004481;-77
2022/06/14 09:44:09;;;;;;;7.25;2.35;;;;;;;24.74;33.87;100303.59;12253405;19;20010;-78
2022/06/14 09:48:32;;;;;;;6.43;2.33;;;;;;;24.85;33.33;100306.91;12222219;19;20046;-80
2022/06/14 09:53:00;;;;;;;5.55;2.08;;;;;;;25.01;33.42;100300.41;12246216;19;20039;-78
2022/06/14 09:57:27;;;;;;;4.95;2.30;;;;;;;25.01;33.73;100300.41;12245361;19;20014;-78
2022/06/14 10:01:50;;;;;;;5.03;1.88;;;;;;;25.27;33.80;100298.72;12251947;19;20007;-78
2022/06/14 10:05:56;;;;;;;5.70;1.80;;;;;;;25.42;33.72;100290.50;12221051;19;20018;-79
2022/06/14 10:10:13;;;;;;;8.20;1.77;;;;;;;25.34;32.48;100282.91;12227060;19;20099;-79
2022/06/14 10:14:41;;;;;;;5.38;2.17;;;;;;;25.53;32.82;100276.06;12207516;19;20011;-79
2022/06/14 10:19:20;;;;;;;4.72;2.00;;;;;;;25.54;32.08;100266.41;12221984;19;20020;-79
2022/06/14 10:23:55;;;;;;;2.60;1.67;;;;;;;25.38;31.80;100269.81;12194131;19;20026;-80
2022/06/14 10:28:18;;;;;;;6.35;1.70;;;;;;;25.43;31.04;100254.66;12237169;19;20023;-78
2022/06/14 10:32:51;;;;;;;5.25;1.58;;;;;;;25.64;31.93;100269.69;12224611;19;20046;-79
2022/06/14 10:37:14;;;;;;;4.55;1.40;;;;;;;25.74;30.77;100262.00;12227070;19;20085;-80
2022/06/14 10:42:00;;;;;;;5.15;2.25;;;;;;;25.57;30.91;100268.56;12198043;19;20381;-80
2022/06/14 10:46:17;;;;;;;3.80;1.30;;;;;;;25.72;30.74;100255.84;12220089;19;20015;-79
2022/06/14 10:50:49;;;;;;;4.80;1.85;;;;;;;25.97;29.85;100256.88;12202188;19;20003;-79
2022/06/14 10:55:08;;;;;;;5.25;1.90;;;;;;;26.19;29.97;100245.25;12218425;19;20560;-79
2022/06/14 10:59:31;;;;;;;8.25;2.00;;;;;;;26.58;29.54;100243.94;12185390;19;20007;-82
2022/06/14 11:03:56;;;;;;;2.58;1.45;;;;;;;26.61;28.95;100227.47;12210762;19;20007;-80
2022/06/14 11:08:42;;;;;;;5.65;1.83;;;;;;;26.77;29.11;100223.66;12192995;19;20011;-80
2022/06/14 11:12:53;;;;;;;6.72;1.55;;;;;;;26.78;28.89;100222.47;12214520;19;20003;-79
2022/06/14 11:17:21;;;;;;;3.40;1.67;;;;;;;27.05;28.03;100218.16;12211047;19;20011;-80
2022/06/14 11:22:00;;;;;;;4.30;1.60;;;;;;;27.17;28.18;100210.91;12192843;19;20010;-80
2022/06/14 11:26:28;;;;;;;4.00;1.67;;;;;;;27.41;26.78;100201.59;12190352;19;20018;-80
2022/06/14 11:30:48;;;;;;;6.22;1.73;;;;;;;27.51;26.83;100195.44;12223179;19;20046;-80
2022/06/14 11:35:02;;;;;;;4.20;1.40;;;;;;;27.74;26.89;100192.94;12216247;19;20040;-81
2022/06/14 11:39:23;;;;;;;6.63;1.70;;;;;;;27.99;26.67;100185.28;12192642;19;20014;-81
2022/06/14 11:43:41;;;;;;;2.58;1.38;;;;;;;28.33;26.51;100180.19;12221468;19;20511;-81
2022/06/14 11:48:04;;;;;;;4.07;1.75;;;;;;;28.42;26.61;100186.56;12185375;19;20464;-80
2022/06/14 11:52:16;;;;;;;;;;;;;;;28.49;26.30;100175.41;12212847;19;20010;-80
2022/06/14 11:57:17;;;;;;;4.72;1.80;;;;;;;28.57;26.15;100173.59;12191115;19;19914;-81
2022/06/14 12:01:22;;;;;;;;;;;;;;;28.88;25.68;100172.81;12213421;19;20028;-81
2022/06/14 12:05:34;;;;;;;4.95;1.40;;;;;;;28.77;25.24;100171.72;12188299;19;19994;-81
2022/06/14 12:09:54;;;;;;;2.50;1.38;;;;;;;29.10;25.67;100162.88;12205541;19;20018;-79
2022/06/14 12:14:33;;;;;;;6.50;1.83;;;;;;;29.33;24.51;100168.75;12213231;19;20414;-81
2022/06/14 12:18:38;;;;;;;3.40;1.65;;;;;;;29.71;23.02;100153.00;12110221;19;2006010;-80
2022/06/14 12:23:28;;;;;;;2.97;1.67;;;;;;;30.65;23.24;100153.78;12188734;19;20038;-80
2022/06/14 12:27:34;;;;;;;3.03;1.35;;;;;;;30.92;22.01;100151.84;12207430;19;20010;-84
2022/06/14 12:31:41;;;;;;;7.18;1.77;;;;;;;31.32;21.42;100151.31;12203269;19;20023;-82
2022/06/14 12:36:06;;;;;;;3.83;1.33;;;;;;;32.49;21.19;100146.88;12187004;19;20006;-83
2022/06/14 12:40:41;;;;;;;4.45;1.80;;;;;;;33.61;19.21;100147.47;12205998;19;20808;-83
2022/06/14 12:45:17;;;;;;;3.53;2.15;;;;;;;34.02;19.83;100136.66;12181874;19;20014;-82
2022/06/14 12:49:29;;;;;;;6.78;2.10;;;;;;;35.00;18.42;100124.28;12213925;19;20661;-82
2022/06/14 12:53:46;;;;;;;3.53;1.60;;;;;;;35.38;17.48;100134.09;12192094;19;20460;-82
2022/06/14 12:58:14;;;;;;;4.65;1.85;;;;;;;35.27;17.02;100121.03;12207363;19;20010;-82
2022/06/14 13:03:02;;;;;;;4.18;1.52;;;;;;;35.01;17.30;100113.63;12180910;19;20014;-83
2022/06/14 13:07:45;;;;;;;4.05;2.58;;;;;;;35.58;17.08;100113.66;12210701;19;20018;-82
2022/06/14 13:17:02;;;;;;;2.00;1.80;;;;;;;36.95;15.83;100103.13;12207507;19;20378;-83
2022/06/14 13:21:17;;;;;;;6.97;1.65;;;;;;;37.40;15.13;100097.41;12178532;19;20002;-83
2022/06/14 13:25:40;;;;;;;4.10;1.58;;;;;;;38.22;15.18;100093.56;12207202;19;20009;-82
2022/06/14 13:30:06;;;;;;;2.30;1.40;;;;;;;39.02;14.05;100087.44;12188341;19;20014;-83
2022/06/14 13:34:29;;;;;;;3.60;1.80;;;;;;;39.16;14.33;100072.78;12227704;19;20032;-81
2022/06/14 13:38:48;;;;;;;4.63;1.40;;;;;;;39.81;13.25;100070.31;12207699;19;20407;-81
2022/06/14 13:42:56;;;;;;;2.67;1.48;;;;;;;40.50;12.78;100069.63;12226514;19;20075;-82
2022/06/14 13:47:14;;;;;;;2.55;1.58;;;;;;;40.37;12.24;100060.03;12218811;19;20070;-82
2022/06/14 13:51:24;;;;;;;4.13;1.75;;;;;;;40.90;11.96;100063.72;12207193;19;20007;-81
2022/06/14 13:55:39;;;;;;;10.68;1.35;;;;;;;41.35;11.99;100057.16;12247763;19;20018;-81
2022/06/14 13:59:45;;;;;;;3.70;1.25;;;;;;;41.44;11.81;100051.56;12233147;19;20002;-82
2022/06/14 14:04:20;;;;;;;4.47;1.70;;;;;;;41.27;12.05;100047.91;12232394;19;20826;-81
2022/06/14 14:08:51;;;;;;;1.75;1.45;;;;;;;41.47;11.33;100033.34;12205790;19;20015;-79
2022/06/14 14:12:59;;;;;;;3.05;1.55;;;;;;;41.89;11.85;100031.28;12231149;19;20081;-82
2022/06/14 14:17:04;;;;;;;2.90;1.52;;;;;;;42.58;11.09;100032.03;12206320;19;20006;-82
2022/06/14 14:21:21;;;;;;;2.65;1.33;;;;;;;42.22;11.16;100010.00;12218843;19;20114;-81
2022/06/14 14:25:35;;;;;;;4.82;1.30;;;;;;;42.43;11.49;100003.53;12227591;19;20007;-81
2022/06/14 14:29:44;;;;;;;2.72;1.60;;;;;;;41.37;11.94;100006.28;12200851;19;20547;-81
2022/06/14 14:34:01;;;;;;;3.20;1.58;;;;;;;42.45;11.30;100001.00;12226597;19;20015;-81
2022/06/14 14:38:31;;;;;;;2.58;1.63;;;;;;;42.19;10.66;99990.66;12199869;19;20366;-82
2022/06/14 14:42:57;;;;;;;3.65;1.40;;;;;;;42.94;10.69;99991.06;12213979;19;20007;-82
2022/06/14 14:46:58;;;;;;;3.92;1.73;;;;;;;43.22;11.03;99986.31;12222757;19;20007;-81
2022/06/14 14:51:33;;;;;;;2.40;1.40;;;;;;;42.70;11.30;99984.84;12199243;19;20349;-81
2022/06/14 14:55:56;;;;;;;5.00;1.38;;;;;;;43.08;11.32;99970.25;12221582;19;20598;-82
2022/06/14 15:09:34;;;;;;;3.63;1.73;;;;;;;38.15;13.72;99960.50;12198309;19;20018;-82
2022/06/14 15:13:48;;;;;;;2.85;1.70;;;;;;;37.12;14.72;99946.22;12210010;19;20018;-81
2022/06/14 15:22:24;;;;;;;2.22;1.52;;;;;;;38.15;14.18;99937.47;12201061;19;20014;-81
2022/06/14 15:26:32;;;;;;;5.03;2.10;;;;;;;36.32;15.01;99944.50;12189148;19;20015;-81
2022/06/14 15:30:46;;;;;;;5.88;2.00;;;;;;;34.62;15.79;99942.72;12200072;19;20091;-81
2022/06/14 15:34:54;;;;;;;3.25;2.13;;;;;;;33.21;16.86;99940.75;12204779;19;20099;-81
2022/06/14 15:39:06;;;;;;;2.85;1.67;;;;;;;32.15;17.92;99935.88;12192937;19;20010;-80
2022/06/14 15:43:25;;;;;;;4.10;2.22;;;;;;;31.73;18.28;99926.47;12217925;19;20014;-81
2022/06/14 15:47:37;;;;;;;5.05;1.55;;;;;;;30.81;18.97;99921.22;12186720;19;20467;-80
2022/06/14 15:51:39;;;;;;;;;;;;;;;30.03;19.84;99911.38;12203898;19;20014;-80
2022/06/14 15:55:48;;;;;;;3.92;1.88;;;;;;;29.74;19.70;99913.69;12212598;19;19943;-81
2022/06/14 16:00:04;;;;;;;2.92;1.70;;;;;;;29.36;20.47;99915.38;12184656;19;20010;-81
2022/06/14 16:04:25;;;;;;;3.30;1.90;;;;;;;29.08;20.80;99905.06;12205493;19;20386;-80
2022/06/14 16:08:31;;;;;;;2.65;1.55;;;;;;;28.95;21.21;99897.06;12186557;19;20031;-81
2022/06/14 16:12:41;;;;;;;4.50;1.50;;;;;;;28.70;20.97;99905.81;12205953;19;20010;-80
2022/06/14 16:16:46;;;;;;;3.70;1.50;;;;;;;28.40;21.74;99908.31;12200426;19;20075;-80
2022/06/14 16:21:09;;;;;;;5.40;2.03;;;;;;;28.39;22.27;99907.50;12189961;19;20552;-80
2022/06/14 16:25:14;;;;;;;3.88;1.42;;;;;;;28.35;22.17;99906.59;12205936;19;20176;-80
2022/06/14 16:29:33;;;;;;;5.28;1.88;;;;;;;28.42;22.15;99888.97;12185567;19;20003;-80
2022/06/14 16:33:47;;;;;;;3.38;1.80;;;;;;;28.32;22.36;99895.19;12198642;19;20022;-80
2022/06/14 16:38:46;;;;;;;5.15;1.52;;;;;;;28.22;22.60;99887.22;12214637;19;20332;-80
2022/06/14 16:42:56;;;;;;;3.38;1.50;;;;;;;28.09;22.41;99886.50;12104138;19;2004636;-80
2022/06/14 16:47:26;;;;;;;4.05;1.80;;;;;;;27.97;22.88;99881.75;12203033;19;20027;-80
2022/06/14 16:52:02;;;;;;;2.08;1.42;;;;;;;27.96;23.40;99882.91;12180457;19;20425;-80
2022/06/14 16:56:22;;;;;;;4.70;1.90;;;;;;;27.78;22.49;99888.13;12183901;19;20011;-79
2022/06/14 17:00:48;;;;;;;2.95;1.95;;;;;;;27.62;22.73;99890.09;12204445;19;20406;-80
2022/06/14 17:04:59;;;;;;;2.88;1.48;;;;;;;27.62;23.33;99884.44;12201536;19;20003;-80
2022/06/14 17:09:12;;;;;;;5.32;1.98;;;;;;;27.50;23.21;99885.31;12177800;19;20014;-80
2022/06/14 17:13:41;;;;;;;3.33;1.65;;;;;;;27.27;23.15;99877.41;12197522;19;20014;-81
2022/06/14 17:17:53;;;;;;;4.20;1.92;;;;;;;27.13;23.78;99881.81;12180237;19;20456;-81
2022/06/14 17:22:03;;;;;;;3.85;1.50;;;;;;;27.13;23.90;99876.13;12207636;19;20017;-81
2022/06/14 17:57:40;;;;;;;5.60;1.60;;;;;;;26.28;25.01;99861.84;12196994;19;20242;31
2022/06/14 18:02:23;;;;;;;3.25;1.40;;;;;;;26.08;26.52;99871.25;12205956;19;20270;-81
2022/06/14 18:06:45;;;;;;;4.93;1.38;;;;;;;25.89;27.56;99867.03;12163909;19;20011;-81
2022/06/14 18:10:51;;;;;;;5.32;1.60;;;;;;;25.78;27.46;99862.97;12204899;19;20417;-82
2022/06/14 18:14:54;;;;;;;2.45;1.38;;;;;;;25.69;27.67;99865.91;12176290;19;20034;-81
2022/06/14 18:19:00;;;;;;;2.08;1.38;;;;;;;25.65;28.11;99872.59;12210081;19;20149;-81
2022/06/14 18:23:09;;;;;;;1.83;1.30;;;;;;;25.61;28.06;99869.66;12226235;19;20015;-83
2022/06/14 18:27:11;;;;;;;3.30;1.92;;;;;;;25.70;28.88;99875.22;12198175;19;20014;-82
2022/06/14 18:31:24;;;;;;;6.63;1.73;;;;;;;25.78;28.06;99862.97;12226219;19;20017;-82
2022/06/14 18:35:26;;;;;;;2.88;1.58;;;;;;;25.60;28.37;99859.53;12197189;19;20123;-82
2022/06/14 18:39:34;;;;;;;2.63;1.38;;;;;;;25.40;29.26;99871.69;12212735;19;20006;-82
2022/06/14 18:44:04;;;;;;;5.88;1.20;;;;;;;25.02;29.85;99856.63;12216459;19;20011;-82
2022/06/14 18:48:12;;;;;;;4.40;1.60;;;;;;;24.68;30.40;99856.91;12198343;19;20616;-82
2022/06/14 18:52:19;;;;;;;3.63;1.40;;;;;;;24.31;31.00;99863.09;12212157;19;20010;-80
2022/06/14 18:56:27;;;;;;;1.77;1.25;;;;;;;23.91;31.76;99859.84;12201758;19;20007;-83
2022/06/14 19:00:34;;;;;;;2.35;1.50;;;;;;;23.53;32.34;99855.00;12225842;19;20017;-82
2022/06/14 19:11:05;;;;;;;1.73;1.25;;;;;;;22.66;34.51;99852.25;12131311;19;2004537;-81
2022/06/14 19:15:15;;;;;;;5.82;1.60;;;;;;;22.33;34.37;99849.09;12207421;19;20026;-81
2022/06/14 19:20:10;;;;;;;4.30;1.42;;;;;;;22.06;35.18;99844.53;12228867;19;20074;-82
2022/06/14 19:24:45;;;;;;;7.32;2.20;;;;;;;21.80;35.00;99850.06;12193459;19;20018;-82
2022/06/14 19:29:11;;;;;;;2.92;1.75;;;;;;;21.54;35.38;99852.75;12218947;19;20516;-81
2022/06/14 19:33:37;;;;;;;5.03;1.85;;;;;;;21.36;35.39;99844.25;12196721;19;20010;-81
2022/06/14 19:37:39;;;;;;;1.90;1.30;;;;;;;21.21;35.31;99840.97;12220031;19;20013;-80
2022/06/14 19:42:14;;;;;;;2.40;1.42;;;;;;;21.03;35.96;99845.63;12195755;19;20019;-81
2022/06/14 19:46:31;;;;;;;3.05;1.27;;;;;;;20.88;35.91;99858.03;12214427;19;20014;-81
2022/06/14 19:50:53;;;;;;;7.22;1.63;;;;;;;20.79;35.65;99854.34;12195693;19;20011;-81
2022/06/14 20:00:27;;;;;;;4.07;1.90;;;;;;;20.70;34.89;99862.69;12186155;19;20634;-82
2022/06/14 20:05:26;;;;;;;2.03;1.30;;;;;;;20.59;35.20;99862.09;12217590;19;20019;-81
2022/06/14 20:09:58;;;;;;;2.83;1.45;;;;;;;20.47;35.28;99867.41;12102211;19;2004473;-81
2022/06/14 20:14:32;;;;;;;7.50;1.30;;;;;;;20.40;35.46;99879.00;12209849;19;20772;-80
2022/06/14 20:18:39;;;;;;;4.68;1.77;;;;;;;20.35;35.41;99873.53;12182551;19;20014;-80
2022/06/14 20:22:44;;;;;;;5.30;1.40;;;;;;;20.33;35.62;99867.41;12202333;19;20007;-80
2022/06/14 20:26:51;;;;;;;2.83;1.13;;;;;;;20.26;34.78;99869.81;12167111;19;20035;-80
2022/06/14 20:31:10;;;;;;;5.97;1.25;;;;;;;20.24;34.90;99875.72;12205820;19;20042;-81
2022/06/14 20:35:13;;;;;;;4.13;1.50;;;;;;;20.22;35.38;99877.16;12183235;19;20027;-79
2022/06/14 20:39:28;;;;;;;2.05;1.20;;;;;;;20.25;35.52;99865.34;12188210;19;20091;-79
2022/06/14 20:43:32;;;;;;;2.22;1.20;;;;;;;20.21;35.62;99872.72;12199995;19;20380;-80
2022/06/14 20:47:36;;;;;;;4.63;1.23;;;;;;;20.14;35.72;99880.72;12181738;19;20070;-81
2022/06/14 20:51:48;;;;;;;4.43;1.17;;;;;;;20.07;35.84;99872.72;12196056;19;20010;-79
2022/06/14 20:55:50;;;;;;;5.07;1.60;;;;;;;20.06;36.08;99873.88;12224380;19;20006;-80
2022/06/14 20:59:54;;;;;;;4.43;1.20;;;;;;;20.04;35.84;99879.75;12189736;19;20014;-79
2022/06/14 21:03:56;;;;;;;4.90;1.13;;;;;;;20.01;35.66;99874.78;12207967;19;20135;-80
2022/06/14 21:07:58;;;;;;;4.75;1.40;;;;;;;19.99;36.01;99870.69;12204398;19;20031;-80